Bf Caroda — V2CV5 — position and weather

sailwx.info

Track history (hours):
 
Tides and Currents Weather Stations Pressure Air Temp Water Temp Dewpoint Dewpoint Depression Visibility Wind Speed Wind Dir Waves Ship Positions

Bf Caroda

Last reported at 2016-Jul-30 11:27 UTC. Time now 2016-Jul-30 13:10 UTC.
Position N 36°54' E 007°46'.

Length 134 m; draft 7.1 m.

Type: Ship (hazmat cat A). MMSI: 304678000.

Date/timePositionNaut miles runAvg speedWind from/ knotsBaromVisibWave heightAir tempDewpointWater temp
2016-Jul-30 11:27N 36°54' E 007°46'25 2.5
2016-Jul-30 01:19N 37°13' E 007°26'1114.2
2016-Jul-30 00:33N 37°14' E 007°13'1414.4
2016-Jul-29 23:33N 37°15' E 006°54'1414.3
2016-Jul-29 22:33N 37°15' E 006°37'1514.4
2016-Jul-29 21:33N 37°15' E 006°18'1414.2
2016-Jul-29 20:33N 37°13' E 006°01'1413.9
2016-Jul-29 19:33N 37°12' E 005°43'1413.7
2016-Jul-29 18:34N 37°11' E 005°26'1414.1
2016-Jul-29 17:33N 37°10' E 005°09'1414.1
2016-Jul-29 16:33N 37°09' E 004°51'2813.8
2016-Jul-29 14:33N 37°07' E 004°16'1412.7
2016-Jul-29 13:29N 37°06' E 003°59'1212.9
2016-Jul-29 12:33N 37°04' E 003°45'1513.9
2016-Jul-29 11:27N 37°01' E 003°26'1212.6
2016-Jul-29 10:30N 36°56' E 003°12'1212.7
2016-Jul-29 09:33N 36°46' E 003°05'1 0.7
2016-Jul-29 08:23N 36°46' E 003°04'0 0.0
2016-Jul-29 07:31N 36°46' E 003°04'0 0.0
2016-Jul-29 05:24N 36°46' E 003°04'0 0.0
2016-Jul-29 04:33N 36°46' E 003°04'0 0.0
2016-Jul-29 03:29N 36°46' E 003°04'0 0.0
2016-Jul-29 02:32N 36°46' E 003°04'0 0.0
2016-Jul-28 12:26N 36°46' E 003°04'0 0.0
2016-Jul-28 00:21N 36°46' E 003°04'0 0.0
2016-Jul-27 16:32N 36°46' E 003°04'0 0.0
2016-Jul-27 10:33N 36°46' E 003°04'3 2.6
2016-Jul-27 09:33N 36°46' E 003°07'0 0.1
2016-Jul-27 07:30N 36°47' E 003°08'0 0.0
2016-Jul-27 06:24N 36°47' E 003°08'0 0.1
2016-Jul-27 05:33N 36°47' E 003°08'0 0.0
2016-Jul-27 04:33N 36°47' E 003°08'6 6.4
2016-Jul-27 03:33N 36°52' E 003°03'13314.2
2016-Jul-26 18:08N 36°26' E 000°20'814.2
2016-Jul-26 17:33N 36°23' E 000°11'1413.6
2016-Jul-26 16:33N 36°18' W 000°06'1813.2
2016-Jul-26 15:09N 36°11' W 000°27'813.9
2016-Jul-26 14:33N 36°09' W 000°37'1514.5
2016-Jul-26 13:34N 36°03' W 000°53'1514.5
2016-Jul-26 12:33N 35°58' W 001°10'1515.2
2016-Jul-26 11:33N 35°53' W 001°27'1413.6
2016-Jul-26 10:32N 35°44' W 001°41'1614.9
2016-Jul-26 09:29N 35°29' W 001°43'237 5.5
2016-Jul-24 14:30N 38°50' E 000°53'1815.1
2016-Jul-24 13:17N 39°05' E 001°07'1114.8
2016-Jul-24 12:32N 39°14' E 001°15'1514.9
2016-Jul-24 11:33N 39°26' E 001°26'1914.5
2016-Jul-24 10:14N 39°41' E 001°41'1014.5
2016-Jul-24 09:33N 39°49' E 001°49'1414.4
2016-Jul-24 08:33N 40°01' E 001°60'1414.5
2016-Jul-24 07:33N 40°12' E 002°11'1515.4
2016-Jul-24 06:33N 40°25' E 002°23'1514.7
2016-Jul-24 05:33N 40°37' E 002°35'1414.3
2016-Jul-24 04:33N 40°48' E 002°46'1514.6
2016-Jul-24 03:33N 40°60' E 002°57'1515.0
2016-Jul-24 02:33N 41°12' E 003°10'1515.1
2016-Jul-24 01:33N 41°24' E 003°22'1514.8
2016-Jul-24 00:33N 41°36' E 003°33'1514.7
2016-Jul-23 23:33N 41°47' E 003°45'10214.4
2016-Jul-23 16:26N 43°10' E 005°07'15 0.6
2016-Jul-22 16:30N 43°21' E 005°20'0 0.0
2016-Jul-22 15:33N 43°21' E 005°20'0 0.0
2016-Jul-22 11:04N 43°21' E 005°20'0 0.0
2016-Jul-22 10:26N 43°21' E 005°20'0 0.0
2016-Jul-22 05:33N 43°21' E 005°20'0 0.0
2016-Jul-22 04:33N 43°21' E 005°20'0 0.1
2016-Jul-22 03:32N 43°21' E 005°20'9 8.9
2016-Jul-22 02:33N 43°16' E 005°10'3013.4
2016-Jul-22 00:20N 42°55' E 005°39'1114.5
2016-Jul-21 23:33N 42°50' E 005°53'1414.4
2016-Jul-21 22:33N 42°44' E 006°11'1414.4
2016-Jul-21 21:33N 42°44' E 006°31'1913.4
2016-Jul-21 20:10N 42°56' E 006°51'914.3
2016-Jul-21 19:33N 43°02' E 006°60'2214.6
2016-Jul-21 18:04N 43°16' E 007°22'714.5
2016-Jul-21 17:33N 43°21' E 007°30'1514.7
2016-Jul-21 16:33N 43°31' E 007°45'1514.6
2016-Jul-21 15:33N 43°40' E 008°00'1414.5
2016-Jul-21 14:33N 43°50' E 008°15'1514.3
2016-Jul-21 13:31N 44°00' E 008°30'1414.0
2016-Jul-21 12:33N 44°10' E 008°43'1313.4
2016-Jul-21 11:33N 44°19' E 008°57'6 5.9
2016-Jul-21 10:33N 44°24' E 008°54'0 0.0
2016-Jul-21 09:32N 44°24' E 008°54'0 0.0
2016-Jul-21 08:29N 44°24' E 008°54'0 0.0
2016-Jul-21 07:31N 44°24' E 008°54'0 0.0
2016-Jul-21 06:31N 44°24' E 008°54'0 0.0
2016-Jul-21 05:33N 44°24' E 008°54'0 0.0
2016-Jul-21 04:30N 44°24' E 008°54'0 0.0
2016-Jul-21 03:32N 44°24' E 008°54'0 0.0
2016-Jul-21 02:32N 44°24' E 008°54'0 0.0
2016-Jul-21 01:32N 44°24' E 008°54'0 0.0
2016-Jul-21 00:31N 44°24' E 008°54'0 0.0
2016-Jul-20 23:28N 44°24' E 008°54'0 0.0
2016-Jul-20 22:33N 44°24' E 008°54'0 0.0
2016-Jul-20 21:30N 44°24' E 008°54'0 0.0
2016-Jul-20 20:32N 44°24' E 008°54'0 0.0
2016-Jul-20 19:29N 44°24' E 008°54'0 0.0
2016-Jul-20 18:32N 44°24' E 008°54'0 0.0
2016-Jul-20 17:31N 44°24' E 008°54'2 2.5
2016-Jul-20 16:34N 44°23' E 008°57'8 7.8
2016-Jul-20 15:34N 44°16' E 009°02'1212.0
2016-Jul-20 14:34N 44°05' E 009°06'1010.3
2016-Jul-20 13:33N 44°05' E 009°20'1514.8
2016-Jul-20 12:34N 43°57' E 009°37'1212.4
2016-Jul-20 11:33N 44°03' E 009°52'  
Track history (hours):
 
Tides and Currents Weather Stations Pressure Air Temp Water Temp Dewpoint Dewpoint Depression Visibility Wind Speed Wind Dir Waves Ship Positions

Bf Caroda

Last reported at 2016-Jul-30 11:27 UTC. Time now 2016-Jul-30 13:10 UTC.
Position N 36°54' E 007°46'.

Length 134 m; draft 7.1 m.

Type: Ship (hazmat cat A). MMSI: 304678000.

Date/timePositionNaut miles runAvg speedWind from/ knotsBaromVisibWave heightAir tempDewpointWater temp
2016-Jul-30 11:27N 36°54' E 007°46'25 2.5
2016-Jul-30 01:19N 37°13' E 007°26'1114.2
2016-Jul-30 00:33N 37°14' E 007°13'1414.4
2016-Jul-29 23:33N 37°15' E 006°54'1414.3
2016-Jul-29 22:33N 37°15' E 006°37'1514.4
2016-Jul-29 21:33N 37°15' E 006°18'1414.2
2016-Jul-29 20:33N 37°13' E 006°01'1413.9
2016-Jul-29 19:33N 37°12' E 005°43'1413.7
2016-Jul-29 18:34N 37°11' E 005°26'1414.1
2016-Jul-29 17:33N 37°10' E 005°09'1414.1
2016-Jul-29 16:33N 37°09' E 004°51'2813.8
2016-Jul-29 14:33N 37°07' E 004°16'1412.7
2016-Jul-29 13:29N 37°06' E 003°59'1212.9
2016-Jul-29 12:33N 37°04' E 003°45'1513.9
2016-Jul-29 11:27N 37°01' E 003°26'1212.6
2016-Jul-29 10:30N 36°56' E 003°12'1212.7
2016-Jul-29 09:33N 36°46' E 003°05'1 0.7
2016-Jul-29 08:23N 36°46' E 003°04'0 0.0
2016-Jul-29 07:31N 36°46' E 003°04'0 0.0
2016-Jul-29 05:24N 36°46' E 003°04'0 0.0
2016-Jul-29 04:33N 36°46' E 003°04'0 0.0
2016-Jul-29 03:29N 36°46' E 003°04'0 0.0
2016-Jul-29 02:32N 36°46' E 003°04'0 0.0
2016-Jul-28 12:26N 36°46' E 003°04'0 0.0
2016-Jul-28 00:21N 36°46' E 003°04'0 0.0
2016-Jul-27 16:32N 36°46' E 003°04'0 0.0
2016-Jul-27 10:33N 36°46' E 003°04'3 2.6
2016-Jul-27 09:33N 36°46' E 003°07'0 0.1
2016-Jul-27 07:30N 36°47' E 003°08'0 0.0
2016-Jul-27 06:24N 36°47' E 003°08'0 0.1
2016-Jul-27 05:33N 36°47' E 003°08'0 0.0
2016-Jul-27 04:33N 36°47' E 003°08'6 6.4
2016-Jul-27 03:33N 36°52' E 003°03'13314.2
2016-Jul-26 18:08N 36°26' E 000°20'814.2
2016-Jul-26 17:33N 36°23' E 000°11'1413.6
2016-Jul-26 16:33N 36°18' W 000°06'1813.2
2016-Jul-26 15:09N 36°11' W 000°27'813.9
2016-Jul-26 14:33N 36°09' W 000°37'1514.5
2016-Jul-26 13:34N 36°03' W 000°53'1514.5
2016-Jul-26 12:33N 35°58' W 001°10'1515.2
2016-Jul-26 11:33N 35°53' W 001°27'1413.6
2016-Jul-26 10:32N 35°44' W 001°41'1614.9
2016-Jul-26 09:29N 35°29' W 001°43'237 5.5
2016-Jul-24 14:30N 38°50' E 000°53'1815.1
2016-Jul-24 13:17N 39°05' E 001°07'1114.8
2016-Jul-24 12:32N 39°14' E 001°15'1514.9
2016-Jul-24 11:33N 39°26' E 001°26'1914.5
2016-Jul-24 10:14N 39°41' E 001°41'1014.5
2016-Jul-24 09:33N 39°49' E 001°49'1414.4
2016-Jul-24 08:33N 40°01' E 001°60'1414.5
2016-Jul-24 07:33N 40°12' E 002°11'1515.4
2016-Jul-24 06:33N 40°25' E 002°23'1514.7
2016-Jul-24 05:33N 40°37' E 002°35'1414.3
2016-Jul-24 04:33N 40°48' E 002°46'1514.6
2016-Jul-24 03:33N 40°60' E 002°57'1515.0
2016-Jul-24 02:33N 41°12' E 003°10'1515.1
2016-Jul-24 01:33N 41°24' E 003°22'1514.8
2016-Jul-24 00:33N 41°36' E 003°33'1514.7
2016-Jul-23 23:33N 41°47' E 003°45'10214.4
2016-Jul-23 16:26N 43°10' E 005°07'15 0.6
2016-Jul-22 16:30N 43°21' E 005°20'0 0.0
2016-Jul-22 15:33N 43°21' E 005°20'0 0.0
2016-Jul-22 11:04N 43°21' E 005°20'0 0.0
2016-Jul-22 10:26N 43°21' E 005°20'0 0.0
2016-Jul-22 05:33N 43°21' E 005°20'0 0.0
2016-Jul-22 04:33N 43°21' E 005°20'0 0.1
2016-Jul-22 03:32N 43°21' E 005°20'9 8.9
2016-Jul-22 02:33N 43°16' E 005°10'3013.4
2016-Jul-22 00:20N 42°55' E 005°39'1114.5
2016-Jul-21 23:33N 42°50' E 005°53'1414.4
2016-Jul-21 22:33N 42°44' E 006°11'1414.4
2016-Jul-21 21:33N 42°44' E 006°31'1913.4
2016-Jul-21 20:10N 42°56' E 006°51'914.3
2016-Jul-21 19:33N 43°02' E 006°60'2214.6
2016-Jul-21 18:04N 43°16' E 007°22'714.5
2016-Jul-21 17:33N 43°21' E 007°30'1514.7
2016-Jul-21 16:33N 43°31' E 007°45'1514.6
2016-Jul-21 15:33N 43°40' E 008°00'1414.5
2016-Jul-21 14:33N 43°50' E 008°15'1514.3
2016-Jul-21 13:31N 44°00' E 008°30'1414.0
2016-Jul-21 12:33N 44°10' E 008°43'1313.4
2016-Jul-21 11:33N 44°19' E 008°57'6 5.9
2016-Jul-21 10:33N 44°24' E 008°54'0 0.0
2016-Jul-21 09:32N 44°24' E 008°54'0 0.0
2016-Jul-21 08:29N 44°24' E 008°54'0 0.0
2016-Jul-21 07:31N 44°24' E 008°54'0 0.0
2016-Jul-21 06:31N 44°24' E 008°54'0 0.0
2016-Jul-21 05:33N 44°24' E 008°54'0 0.0
2016-Jul-21 04:30N 44°24' E 008°54'0 0.0
2016-Jul-21 03:32N 44°24' E 008°54'0 0.0
2016-Jul-21 02:32N 44°24' E 008°54'0 0.0
2016-Jul-21 01:32N 44°24' E 008°54'0 0.0
2016-Jul-21 00:31N 44°24' E 008°54'0 0.0
2016-Jul-20 23:28N 44°24' E 008°54'0 0.0
2016-Jul-20 22:33N 44°24' E 008°54'0 0.0
2016-Jul-20 21:30N 44°24' E 008°54'0 0.0
2016-Jul-20 20:32N 44°24' E 008°54'0 0.0
2016-Jul-20 19:29N 44°24' E 008°54'0 0.0
2016-Jul-20 18:32N 44°24' E 008°54'0 0.0
2016-Jul-20 17:31N 44°24' E 008°54'2 2.5
2016-Jul-20 16:34N 44°23' E 008°57'8 7.8
2016-Jul-20 15:34N 44°16' E 009°02'1212.0
2016-Jul-20 14:34N 44°05' E 009°06'1010.3
2016-Jul-20 13:33N 44°05' E 009°20'1514.8
2016-Jul-20 12:34N 43°57' E 009°37'1212.4
2016-Jul-20 11:33N 44°03' E 009°52'  

Dump ship's entire track history